createdAt,value
2019-03-23T00:00:45.811Z,10.28
2019-03-23T00:03:15.795Z,10.38
2019-03-23T00:05:45.773Z,10.31
2019-03-23T00:08:15.762Z,10.40
2019-03-23T00:10:45.764Z,10.34
2019-03-23T00:13:15.732Z,10.32
2019-03-23T00:15:45.746Z,10.29
2019-03-23T00:18:15.729Z,10.29
2019-03-23T00:20:45.752Z,10.32
2019-03-23T00:23:15.675Z,10.35
2019-03-23T00:25:45.640Z,10.33
2019-03-23T00:28:15.625Z,10.35
2019-03-23T00:30:45.577Z,10.35
2019-03-23T00:33:15.568Z,10.39
2019-03-23T00:35:45.535Z,10.34
2019-03-23T00:38:15.534Z,10.34
2019-03-23T00:40:45.513Z,10.40
2019-03-23T00:43:15.473Z,10.37
2019-03-23T00:45:45.464Z,10.38
2019-03-23T00:48:15.446Z,10.39
2019-03-23T00:50:45.439Z,10.44
2019-03-23T00:53:15.400Z,10.76
2019-03-23T00:55:45.391Z,10.53
2019-03-23T00:58:15.360Z,10.52
2019-03-23T01:00:45.321Z,10.53
2019-03-23T01:03:15.298Z,10.57
2019-03-23T01:05:45.261Z,10.92
2019-03-23T01:08:15.265Z,11.07
2019-03-23T01:10:45.215Z,10.74
2019-03-23T01:13:15.195Z,10.68
2019-03-23T01:15:45.148Z,10.64
2019-03-23T01:18:15.119Z,10.59
2019-03-23T01:20:49.699Z,10.64
2019-03-23T01:23:15.062Z,10.50
2019-03-23T01:25:45.040Z,10.48
2019-03-23T01:28:15.022Z,10.56
2019-03-23T01:30:44.970Z,10.57
2019-03-23T01:33:15.914Z,10.60
2019-03-23T01:35:45.882Z,10.58
2019-03-23T01:38:15.857Z,10.54
2019-03-23T01:40:45.846Z,10.96
2019-03-23T01:43:15.802Z,10.65
2019-03-23T01:45:45.775Z,10.64
2019-03-23T01:48:15.768Z,10.62
2019-03-23T01:50:45.717Z,10.62
2019-03-23T01:53:15.681Z,10.62
2019-03-23T01:55:45.682Z,10.58
2019-03-23T01:58:15.659Z,10.60
2019-03-23T02:00:45.670Z,10.59
2019-03-23T02:03:15.603Z,10.63
2019-03-23T02:05:45.572Z,10.61
2019-03-23T02:08:15.571Z,10.60
2019-03-23T02:10:45.546Z,10.62
2019-03-23T02:13:15.530Z,10.65
2019-03-23T02:15:45.484Z,10.64
2019-03-23T02:18:15.448Z,10.64
2019-03-23T02:20:45.426Z,10.66
2019-03-23T02:23:15.384Z,11.10
2019-03-23T02:25:45.353Z,10.84
2019-03-23T02:28:15.307Z,10.79
2019-03-23T02:30:45.308Z,10.73
2019-03-23T02:33:15.281Z,10.79
2019-03-23T02:35:45.239Z,10.75
2019-03-23T02:38:15.186Z,10.80
2019-03-23T02:40:45.199Z,10.81
2019-03-23T02:43:15.173Z,10.87
2019-03-23T02:45:45.150Z,11.22
2019-03-23T02:48:15.110Z,10.99
2019-03-23T02:50:45.081Z,10.91
2019-03-23T02:53:15.033Z,10.89
2019-03-23T02:55:45.022Z,10.86
2019-03-23T02:58:14.963Z,10.79
2019-03-23T03:00:44.960Z,10.66
2019-03-23T03:03:14.916Z,10.59
2019-03-23T03:05:44.871Z,10.48
2019-03-23T03:08:14.880Z,10.39
2019-03-23T03:10:44.853Z,10.35
2019-03-23T03:13:14.826Z,10.24
2019-03-23T03:15:44.800Z,10.18
2019-03-23T03:18:14.786Z,10.11
2019-03-23T03:20:44.764Z,10.08
2019-03-23T03:23:14.727Z,9.90
2019-03-23T03:25:44.694Z,9.83
2019-03-23T03:28:14.644Z,9.73
2019-03-23T03:30:44.590Z,9.70
2019-03-23T03:33:14.579Z,9.60
2019-03-23T03:35:44.560Z,9.54
2019-03-23T03:38:14.531Z,9.42
2019-03-23T03:40:44.520Z,9.70
2019-03-23T03:43:14.482Z,9.43
2019-03-23T03:45:44.423Z,9.33
2019-03-23T03:48:14.394Z,9.19
2019-03-23T03:50:44.423Z,9.55
2019-03-23T03:53:14.334Z,9.28
2019-03-23T03:55:44.358Z,9.27
2019-03-23T03:58:14.248Z,9.27
2019-03-23T04:00:44.190Z,9.25
2019-03-23T04:03:14.151Z,9.16
2019-03-23T04:05:44.128Z,9.17
2019-03-23T04:08:14.101Z,9.14
2019-03-23T04:10:44.088Z,9.15
2019-03-23T04:13:14.032Z,9.11
2019-03-23T04:15:43.990Z,9.38
2019-03-23T04:18:13.950Z,9.04
2019-03-23T04:20:43.935Z,8.98
2019-03-23T04:23:13.901Z,9.06
2019-03-23T04:25:43.908Z,9.54
2019-03-23T04:28:13.848Z,9.76
2019-03-23T04:30:43.810Z,9.93
2019-03-23T04:33:13.786Z,9.69
2019-03-23T04:35:43.754Z,9.59
2019-03-23T04:38:22.238Z,9.55
2019-03-23T04:40:43.722Z,9.51
2019-03-23T04:43:13.703Z,9.49
2019-03-23T04:45:43.665Z,9.43
2019-03-23T04:48:13.646Z,9.37
2019-03-23T04:50:43.605Z,9.37
2019-03-23T04:53:13.598Z,9.36
2019-03-23T04:55:43.565Z,9.39
2019-03-23T04:58:13.629Z,9.42
2019-03-23T05:00:43.597Z,9.44
2019-03-23T05:03:13.567Z,9.43
2019-03-23T05:05:43.527Z,9.90
2019-03-23T05:08:13.493Z,9.62
2019-03-23T05:10:43.474Z,10.08
2019-03-23T05:13:13.444Z,9.81
2019-03-23T05:15:43.407Z,9.75
2019-03-23T05:18:13.371Z,9.75
2019-03-23T05:20:43.329Z,10.18
2019-03-23T05:23:13.302Z,9.85
2019-03-23T05:25:43.312Z,10.30
2019-03-23T05:28:13.339Z,10.03
2019-03-23T05:30:43.338Z,9.95
2019-03-23T05:33:13.309Z,9.90
2019-03-23T05:35:43.291Z,9.89
2019-03-23T05:38:13.255Z,9.89
2019-03-23T05:40:43.222Z,9.91
2019-03-23T05:43:13.232Z,9.97
2019-03-23T05:45:43.204Z,9.95
2019-03-23T05:48:13.158Z,9.97
2019-03-23T05:50:43.134Z,9.98
2019-03-23T05:53:13.092Z,9.96
2019-03-23T05:55:43.067Z,10.00
2019-03-23T05:58:13.043Z,10.02
2019-03-23T06:00:43.006Z,10.04
2019-03-23T06:03:12.982Z,10.08
2019-03-23T06:05:42.931Z,10.12
2019-03-23T06:08:12.901Z,10.15
2019-03-23T06:10:42.854Z,10.14
2019-03-23T06:13:12.827Z,10.12
2019-03-23T06:15:42.795Z,10.51
2019-03-23T06:18:12.800Z,10.31
2019-03-23T06:20:42.766Z,10.28
2019-03-23T06:23:12.745Z,10.29
2019-03-23T06:25:42.726Z,10.30
2019-03-23T06:28:12.695Z,10.24
2019-03-23T06:30:42.670Z,10.32
2019-03-23T06:33:12.659Z,10.36
2019-03-23T06:35:42.659Z,10.41
2019-03-23T06:38:12.632Z,10.48
2019-03-23T06:40:42.624Z,10.49
2019-03-23T06:43:12.602Z,10.94
2019-03-23T06:45:42.569Z,10.69
2019-03-23T06:48:12.533Z,10.70
2019-03-23T06:50:42.537Z,10.71
2019-03-23T06:53:12.480Z,10.71
2019-03-23T06:55:42.442Z,10.71
2019-03-23T06:58:12.409Z,10.73
2019-03-23T07:00:42.380Z,10.72
2019-03-23T07:03:12.370Z,10.73
2019-03-23T07:05:42.334Z,10.76
2019-03-23T07:08:12.316Z,10.78
2019-03-23T07:10:42.290Z,10.88
2019-03-23T07:13:12.276Z,10.89
2019-03-23T07:15:42.224Z,10.87
2019-03-23T07:18:12.182Z,11.36
2019-03-23T07:20:42.157Z,11.15
2019-03-23T07:23:12.124Z,11.15
2019-03-23T07:25:42.105Z,11.15
2019-03-23T07:28:12.069Z,11.21
2019-03-23T07:30:42.050Z,11.20
2019-03-23T07:33:12.019Z,11.17
2019-03-23T07:35:41.997Z,11.18
2019-03-23T07:38:11.944Z,11.18
2019-03-23T07:40:41.939Z,11.18
2019-03-23T07:43:11.950Z,11.17
2019-03-23T07:45:41.932Z,11.66
2019-03-23T07:48:11.929Z,11.39
2019-03-23T07:50:41.863Z,11.34
2019-03-23T07:53:11.853Z,11.28
2019-03-23T07:55:41.805Z,11.42
2019-03-23T07:58:11.963Z,11.37
2019-03-23T08:00:41.839Z,11.44
2019-03-23T08:03:11.799Z,11.53
2019-03-23T08:05:41.799Z,11.52
2019-03-23T08:08:11.752Z,11.52
2019-03-23T08:10:41.734Z,11.59
2019-03-23T08:13:11.761Z,11.52
2019-03-23T08:15:41.706Z,11.93
2019-03-23T08:18:11.685Z,11.70
2019-03-23T08:20:41.668Z,11.66
2019-03-23T08:23:11.639Z,11.48
2019-03-23T08:25:41.587Z,11.63
2019-03-23T08:28:11.564Z,12.04
2019-03-23T08:30:41.537Z,11.79
2019-03-23T08:33:11.526Z,11.83
2019-03-23T08:35:41.520Z,11.78
2019-03-23T08:38:11.501Z,11.90
2019-03-23T08:40:41.479Z,11.98
2019-03-23T08:43:11.451Z,12.01
2019-03-23T08:45:41.428Z,12.03
2019-03-23T08:48:11.392Z,12.45
2019-03-23T08:50:41.372Z,12.15
2019-03-23T08:53:11.363Z,12.18
2019-03-23T08:55:41.336Z,12.24
2019-03-23T08:58:11.314Z,12.23
2019-03-23T09:00:41.288Z,12.66
2019-03-23T09:03:11.265Z,12.40
2019-03-23T09:05:41.244Z,12.38
2019-03-23T09:08:11.317Z,12.44
2019-03-23T09:10:41.289Z,12.39
2019-03-23T09:13:11.302Z,12.38
2019-03-23T09:15:41.270Z,12.38
2019-03-23T09:18:11.278Z,12.43
2019-03-23T09:20:41.255Z,12.40
2019-03-23T09:23:11.312Z,12.43
2019-03-23T09:25:41.294Z,12.51
2019-03-23T09:28:11.253Z,12.55
2019-03-23T09:30:41.225Z,12.58
2019-03-23T09:33:11.181Z,12.66
2019-03-23T09:35:41.156Z,12.71
2019-03-23T09:38:11.176Z,12.78
2019-03-23T09:40:41.155Z,12.84
2019-03-23T09:43:11.312Z,12.88
2019-03-23T09:45:41.263Z,12.84
2019-03-23T09:48:11.313Z,12.90
2019-03-23T09:50:41.253Z,12.90
2019-03-23T09:53:11.249Z,12.93
2019-03-23T09:55:41.187Z,12.97
2019-03-23T09:58:11.175Z,12.97
2019-03-23T10:00:41.141Z,13.06
2019-03-23T10:03:11.137Z,13.08
2019-03-23T10:05:41.126Z,13.11
2019-03-23T10:08:11.081Z,13.20
2019-03-23T10:10:41.065Z,13.30
2019-03-23T10:13:11.017Z,13.42
2019-03-23T10:15:41.002Z,13.57
2019-03-23T10:18:11.043Z,13.62
2019-03-23T10:20:41.029Z,13.78
2019-03-23T10:23:11.178Z,13.90
2019-03-23T10:25:41.162Z,13.88
2019-03-23T10:28:11.124Z,13.87
2019-03-23T10:30:41.108Z,13.93
2019-03-23T10:33:11.088Z,13.95
2019-03-23T10:35:41.085Z,13.93
2019-03-23T10:38:11.271Z,14.22
2019-03-23T10:40:42.973Z,13.97
2019-03-23T10:43:11.301Z,13.95
2019-03-23T10:45:44.344Z,13.98
2019-03-23T10:48:12.245Z,14.06
2019-03-23T10:50:41.278Z,13.99
2019-03-23T10:53:11.242Z,14.04
2019-03-23T10:55:41.191Z,14.08
2019-03-23T10:58:11.250Z,14.10
2019-03-23T11:00:41.254Z,14.12
2019-03-23T11:03:11.229Z,14.20
2019-03-23T11:05:41.193Z,14.20
2019-03-23T11:08:11.164Z,14.37
2019-03-23T11:10:42.036Z,14.52
2019-03-23T11:13:11.149Z,14.55
2019-03-23T11:15:41.148Z,14.60
2019-03-23T11:18:11.119Z,14.52
2019-03-23T11:20:41.080Z,14.50
2019-03-23T11:23:11.057Z,14.52
2019-03-23T11:25:41.040Z,14.49
2019-03-23T11:28:11.103Z,14.60
2019-03-23T11:30:41.074Z,14.71
2019-03-23T11:33:11.037Z,14.71
2019-03-23T11:35:41.034Z,14.76
2019-03-23T11:38:11.250Z,14.83
2019-03-23T11:40:41.242Z,14.91
2019-03-23T11:43:11.427Z,14.92
2019-03-23T11:45:41.417Z,14.90
2019-03-23T11:48:11.445Z,14.95
2019-03-23T11:50:41.414Z,14.91
2019-03-23T11:53:11.405Z,14.97
2019-03-23T11:55:41.398Z,15.03
2019-03-23T11:58:11.382Z,15.14
2019-03-23T12:00:41.392Z,15.13
2019-03-23T12:03:11.359Z,15.02
2019-03-23T12:05:41.338Z,14.95
2019-03-23T12:08:11.331Z,14.91
2019-03-23T12:10:41.285Z,14.91
2019-03-23T12:13:11.293Z,15.21
2019-03-23T12:15:41.269Z,15.02
2019-03-23T12:18:11.255Z,15.07
2019-03-23T12:20:41.237Z,15.14
2019-03-23T12:23:11.216Z,15.27
2019-03-23T12:25:41.175Z,15.18
2019-03-23T12:28:11.228Z,15.18
2019-03-23T12:30:41.194Z,15.07
2019-03-23T12:33:11.186Z,15.19
2019-03-23T12:35:41.158Z,15.20
2019-03-23T12:38:11.226Z,15.31
2019-03-23T12:40:41.212Z,15.30
2019-03-23T12:43:11.196Z,15.27
2019-03-23T12:45:41.184Z,15.22
2019-03-23T12:48:11.179Z,15.24
2019-03-23T12:50:41.147Z,15.21
2019-03-23T12:53:11.117Z,15.22
2019-03-23T12:55:41.087Z,15.28
2019-03-23T12:58:11.163Z,15.19
2019-03-23T13:00:41.123Z,15.23
2019-03-23T13:03:11.209Z,15.54
2019-03-23T13:05:41.174Z,15.38
2019-03-23T13:08:11.155Z,15.40
2019-03-23T13:10:41.107Z,15.32
2019-03-23T13:13:11.074Z,15.21
2019-03-23T13:15:41.098Z,15.05
2019-03-23T13:18:11.067Z,15.04
2019-03-23T13:20:41.066Z,14.94
2019-03-23T13:23:12.694Z,14.90
2019-03-23T13:25:41.136Z,14.73
2019-03-23T13:28:11.166Z,14.64
2019-03-23T13:30:41.143Z,14.66
2019-03-23T13:33:11.136Z,14.91
2019-03-23T13:35:41.087Z,15.10
2019-03-23T13:38:11.168Z,14.86
2019-03-23T13:40:41.125Z,14.77
2019-03-23T13:43:11.116Z,14.79
2019-03-23T13:45:42.765Z,14.78
2019-03-23T13:48:11.134Z,14.67
2019-03-23T13:50:41.114Z,14.88
2019-03-23T13:53:11.083Z,14.56
2019-03-23T13:55:41.044Z,14.39
2019-03-23T13:58:12.291Z,14.40
2019-03-23T14:00:42.247Z,14.25
2019-03-23T14:03:12.217Z,14.13
2019-03-23T14:05:42.211Z,13.85
2019-03-23T14:08:12.189Z,13.71
2019-03-23T14:10:42.155Z,13.68
2019-03-23T14:13:12.159Z,13.64
2019-03-23T14:15:42.870Z,13.69
2019-03-23T14:18:13.338Z,13.83
2019-03-23T14:20:46.212Z,13.98
2019-03-23T14:23:16.526Z,14.13
2019-03-23T14:25:46.592Z,14.26
2019-03-23T14:28:17.532Z,14.34
2019-03-23T14:30:47.932Z,14.38
2019-03-23T14:33:21.287Z,14.50
2019-03-23T14:35:51.889Z,14.66
2019-03-23T14:38:21.965Z,14.91
2019-03-23T14:40:52.326Z,15.03
2019-03-23T14:43:27.442Z,15.04
2019-03-23T14:46:00.786Z,15.07
2019-03-23T14:48:31.034Z,15.07
2019-03-23T14:51:03.712Z,15.13
2019-03-23T14:53:35.049Z,15.16
2019-03-23T14:56:06.917Z,15.23
2019-03-23T14:58:37.254Z,15.26
2019-03-23T15:01:08.774Z,15.17
2019-03-23T15:03:39.145Z,15.22
2019-03-23T15:06:11.962Z,15.27
2019-03-23T15:08:45.039Z,15.34
2019-03-23T15:11:15.293Z,15.34
2019-03-23T15:13:51.022Z,15.27
2019-03-23T15:16:21.303Z,15.29
2019-03-23T15:18:51.697Z,15.27
2019-03-23T15:21:21.775Z,15.22
2019-03-23T15:23:54.879Z,15.20
2019-03-23T15:26:24.901Z,15.14
2019-03-23T15:28:55.202Z,15.06
2019-03-23T15:31:26.010Z,15.03
2019-03-23T15:33:56.222Z,14.92
2019-03-23T15:36:29.416Z,14.78
2019-03-23T15:38:59.576Z,14.67
2019-03-23T15:41:32.802Z,14.58
2019-03-23T15:44:05.064Z,14.79
2019-03-23T15:46:38.882Z,14.86
2019-03-23T15:49:09.395Z,14.55
2019-03-23T15:51:39.619Z,14.48
2019-03-23T15:54:09.925Z,14.45
2019-03-23T15:56:43.319Z,14.31
2019-03-23T15:59:13.444Z,14.24
2019-03-23T16:01:43.759Z,14.11
2019-03-23T16:04:18.611Z,14.03
2019-03-23T16:06:46.521Z,13.97
2019-03-23T16:09:21.926Z,13.89
2019-03-23T16:11:52.018Z,13.82
2019-03-23T16:14:25.538Z,13.85
2019-03-23T16:16:55.591Z,13.78
2019-03-23T16:19:26.069Z,13.84
2019-03-23T16:21:56.592Z,13.94
2019-03-23T16:24:26.776Z,13.95
2019-03-23T16:27:05.580Z,13.99
2019-03-23T16:29:36.155Z,14.00
2019-03-23T16:32:06.469Z,13.95
2019-03-23T16:34:38.565Z,13.92
2019-03-23T16:37:11.717Z,13.88
2019-03-23T16:39:43.921Z,13.85
2019-03-23T16:42:14.155Z,13.79
2019-03-23T16:44:46.735Z,13.74
2019-03-23T16:47:26.071Z,13.67
2019-03-23T16:50:01.635Z,13.68
2019-03-23T16:52:30.175Z,13.65
2019-03-23T16:55:11.454Z,13.62
2019-03-23T16:57:38.897Z,13.54
2019-03-23T17:00:12.026Z,13.53
2019-03-23T17:02:44.880Z,13.56
2019-03-23T17:05:23.769Z,13.75
2019-03-23T17:07:54.535Z,13.56
2019-03-23T17:10:27.310Z,13.45
2019-03-23T17:12:57.297Z,13.40
2019-03-23T17:15:27.991Z,13.37
2019-03-23T17:18:00.899Z,13.29
2019-03-23T17:20:32.033Z,13.22
2019-03-23T17:23:02.580Z,13.16
2019-03-23T17:25:32.594Z,13.03
2019-03-23T17:28:02.620Z,13.02
2019-03-23T17:30:32.586Z,12.89
2019-03-23T17:33:02.562Z,12.80
2019-03-23T17:35:32.506Z,12.69
2019-03-23T17:38:02.479Z,12.60
2019-03-23T17:40:32.425Z,12.51
2019-03-23T17:43:06.271Z,12.46
2019-03-23T17:45:32.378Z,12.34
2019-03-23T17:48:02.331Z,12.29
2019-03-23T17:50:32.339Z,12.14
2019-03-23T17:53:02.309Z,12.40
2019-03-23T17:55:32.304Z,12.42
2019-03-23T17:58:02.270Z,12.06
2019-03-23T18:00:32.245Z,11.95
2019-03-23T18:03:02.231Z,11.78
2019-03-23T18:05:32.185Z,11.67
2019-03-23T18:08:02.167Z,11.55
2019-03-23T18:10:32.121Z,11.44
2019-03-23T18:13:02.123Z,11.37
2019-03-23T18:15:32.080Z,11.30
2019-03-23T18:18:02.026Z,11.21
2019-03-23T18:20:32.005Z,11.12
2019-03-23T18:23:01.974Z,11.04
2019-03-23T18:25:31.933Z,10.93
2019-03-23T18:28:01.933Z,10.84
2019-03-23T18:30:48.821Z,10.75
2019-03-23T18:33:18.794Z,10.67
2019-03-23T18:35:48.789Z,10.62
2019-03-23T18:38:18.762Z,10.59
2019-03-23T18:40:48.696Z,10.52
2019-03-23T18:43:27.063Z,10.50
2019-03-23T18:45:48.647Z,10.49
2019-03-23T18:48:18.608Z,10.41
2019-03-23T18:50:48.558Z,10.31
2019-03-23T18:53:18.528Z,10.23
2019-03-23T18:55:48.475Z,10.28
2019-03-23T18:58:18.426Z,10.29
2019-03-23T19:00:48.391Z,10.66
2019-03-23T19:03:18.357Z,10.44
2019-03-23T19:05:48.303Z,10.30
2019-03-23T19:08:18.258Z,10.20
2019-03-23T19:10:48.214Z,10.09
2019-03-23T19:13:18.184Z,9.99
2019-03-23T19:15:48.127Z,9.94
2019-03-23T19:18:18.098Z,9.88
2019-03-23T19:20:48.070Z,9.92
2019-03-23T19:23:18.017Z,9.82
2019-03-23T19:25:47.992Z,9.80
2019-03-23T19:28:17.953Z,9.73
2019-03-23T19:30:47.910Z,9.72
2019-03-23T19:33:17.843Z,9.70
2019-03-23T19:35:47.832Z,9.68
2019-03-23T19:38:18.263Z,9.56
2019-03-23T19:40:47.772Z,9.89
2019-03-23T19:43:17.721Z,9.62
2019-03-23T19:45:47.689Z,9.90
2019-03-23T19:48:17.664Z,9.62
2019-03-23T19:50:47.619Z,9.55
2019-03-23T19:53:17.559Z,9.42
2019-03-23T19:55:47.502Z,9.26
2019-03-23T19:58:17.469Z,9.27
2019-03-23T20:00:47.459Z,9.23
2019-03-23T20:03:19.178Z,9.13
2019-03-23T20:05:47.438Z,9.07
2019-03-23T20:08:17.379Z,8.96
2019-03-23T20:10:47.330Z,8.92
2019-03-23T20:13:17.301Z,8.82
2019-03-23T20:15:47.268Z,8.77
2019-03-23T20:18:17.241Z,8.74
2019-03-23T20:20:47.185Z,8.67
2019-03-23T20:23:17.170Z,8.63
2019-03-23T20:25:47.122Z,8.57
2019-03-23T20:28:17.089Z,8.57
2019-03-23T20:30:47.082Z,8.55
2019-03-23T20:33:19.679Z,8.49
2019-03-23T20:35:47.039Z,8.43
2019-03-23T20:38:17.014Z,8.40
2019-03-23T20:40:46.996Z,8.36
2019-03-23T20:43:17.011Z,8.30
2019-03-23T20:45:46.963Z,8.25
2019-03-23T20:48:16.910Z,8.66
2019-03-23T20:50:46.896Z,8.37
2019-03-23T20:53:17.076Z,8.28
2019-03-23T20:55:47.037Z,8.19
2019-03-23T20:58:16.983Z,8.17
2019-03-23T21:00:46.938Z,8.54
2019-03-23T21:03:16.906Z,8.33
2019-03-23T21:05:46.918Z,8.62
2019-03-23T21:08:16.875Z,8.38
2019-03-23T21:10:46.852Z,8.39
2019-03-23T21:13:16.808Z,8.34
2019-03-23T21:15:46.739Z,8.65
2019-03-23T21:18:16.712Z,8.40
2019-03-23T21:20:46.666Z,8.34
2019-03-23T21:23:16.634Z,8.33
2019-03-23T21:25:46.605Z,8.27
2019-03-23T21:28:16.552Z,8.22
2019-03-23T21:30:46.516Z,8.10
2019-03-23T21:33:16.449Z,8.36
2019-03-23T21:35:46.422Z,8.07
2019-03-23T21:38:16.379Z,8.01
2019-03-23T21:40:46.342Z,7.93
2019-03-23T21:43:16.285Z,7.82
2019-03-23T21:45:46.276Z,7.83
2019-03-23T21:48:16.256Z,7.78
2019-03-23T21:50:47.689Z,7.78
2019-03-23T21:53:16.216Z,7.77
2019-03-23T21:55:46.180Z,7.75
2019-03-23T21:58:16.146Z,7.69
2019-03-23T22:00:46.097Z,7.65
2019-03-23T22:03:16.053Z,7.62
2019-03-23T22:05:46.025Z,7.51
2019-03-23T22:08:15.973Z,7.48
2019-03-23T22:10:45.933Z,7.41
2019-03-23T22:13:15.918Z,7.42
2019-03-23T22:15:45.895Z,7.39
2019-03-23T22:18:15.850Z,7.33
2019-03-23T22:20:45.818Z,7.30
2019-03-23T22:23:15.797Z,7.23
2019-03-23T22:25:45.760Z,7.22
2019-03-23T22:28:15.844Z,7.48
2019-03-23T22:30:45.792Z,7.22
2019-03-23T22:33:15.741Z,7.20
2019-03-23T22:35:45.702Z,7.09
2019-03-23T22:38:15.659Z,7.04
2019-03-23T22:40:45.628Z,7.02
2019-03-23T22:43:15.623Z,6.96
2019-03-23T22:45:45.582Z,6.87
2019-03-23T22:48:15.546Z,6.80
2019-03-23T22:50:45.497Z,6.69
2019-03-23T22:53:15.439Z,6.64
2019-03-23T22:55:45.409Z,6.62
2019-03-23T22:58:15.355Z,6.55
2019-03-23T23:00:46.260Z,6.53
2019-03-23T23:03:16.218Z,6.49
2019-03-23T23:05:46.179Z,6.49
2019-03-23T23:08:16.146Z,6.57
2019-03-23T23:10:46.104Z,6.52
2019-03-23T23:13:16.066Z,6.45
2019-03-23T23:15:46.041Z,6.37
2019-03-23T23:18:15.985Z,6.29
2019-03-23T23:20:45.968Z,6.25
2019-03-23T23:23:15.904Z,6.11
2019-03-23T23:25:45.861Z,6.06
2019-03-23T23:28:15.834Z,6.00
2019-03-23T23:30:45.792Z,5.81
2019-03-23T23:33:15.754Z,5.82
2019-03-23T23:35:45.725Z,5.81
2019-03-23T23:38:15.688Z,5.83
2019-03-23T23:40:45.635Z,5.85
2019-03-23T23:43:15.609Z,5.85
2019-03-23T23:45:45.590Z,5.83
2019-03-23T23:48:15.573Z,5.74
2019-03-23T23:50:45.518Z,5.71
2019-03-23T23:53:15.496Z,5.67
2019-03-23T23:55:45.444Z,5.60
2019-03-23T23:58:15.400Z,5.54
